Impacts TAF Board
For situational awareness. Not to be used for flight planning purposes.
IDs:

KIAD - Washington/Dulles In, VA, US

Issued at 0853 UTC 23 Jul 2019
Updated at 0922 UTC 23 Jul 2019
Potential Impact None Slight Moderate High
Time<<24/10Z 24/11Z 24/12Z 24/13Z 24/14Z 24/15Z 24/16Z 24/17Z 24/18Z 24/19Z 24/20Z 24/21Z 24/22Z
Type PRVL PRVL
VIS >6 >6
CIG -- --
Cover SCT SCT
FltCat VFR VFR
WX -- --
WDir 340 340
WSpd 5 5
WGst -- --
Raw TAF
KIAD 230853Z 2309/2412 31010KT P6SM VCSH SCT015 SCT050 BKN130
  FM231100 32008KT 6SM -SHRA SCT015 BKN050 OVC130
  FM231800 31008KT P6SM SCT030 BKN050 BKN130
  FM240000 34005KT P6SM SCT080


METAR Board
Radar Display
Forecast Discussion
For situational awareness. Not to be used for flight planning purposes.